sensor_id;sensor_type;location;lat;lon;timestamp;pressure;altitude;pressure_sealevel;temperature;humidity
86299;BME280;76956;50.530;8.312;2024-03-23T00:53:21;99330.38;;;6.77;82.15
86299;BME280;76956;50.530;8.312;2024-03-23T00:54:22;99328.44;;;6.74;82.44
86299;BME280;76956;50.530;8.312;2024-03-23T00:55:22;99328.44;;;6.74;82.61
86299;BME280;76956;50.530;8.312;2024-03-23T00:56:23;99325.72;;;6.74;82.46
86299;BME280;76956;50.530;8.312;2024-03-23T00:57:24;99325.72;;;6.74;82.63
86299;BME280;76956;50.530;8.312;2024-03-23T00:58:25;99322.63;;;6.68;82.53
86299;BME280;76956;50.530;8.312;2024-03-23T00:59:26;99328.44;;;6.74;82.79
86299;BME280;76956;50.530;8.312;2024-03-23T01:00:28;99324.19;;;6.66;82.85
86299;BME280;76956;50.530;8.312;2024-03-23T01:01:29;99314.06;;;6.63;83.31
86299;BME280;76956;50.530;8.312;2024-03-23T01:02:30;99317.19;;;6.68;83.04
86299;BME280;76956;50.530;8.312;2024-03-23T01:03:31;99311.69;;;6.75;82.70
86299;BME280;76956;50.530;8.312;2024-03-23T01:04:32;99321.03;;;6.78;82.84
86299;BME280;76956;50.530;8.312;2024-03-23T01:05:32;99318.66;;;6.83;82.13
86299;BME280;76956;50.530;8.312;2024-03-23T01:06:33;99309.72;;;6.83;82.47
86299;BME280;76956;50.530;8.312;2024-03-23T01:07:34;99311.66;;;6.86;82.41
86299;BME280;76956;50.530;8.312;2024-03-23T01:08:35;99311.66;;;6.86;82.33
86299;BME280;76956;50.530;8.312;2024-03-23T01:09:35;99305.78;;;6.91;82.67
86299;BME280;76956;50.530;8.312;2024-03-23T01:10:39;99312.44;;;6.90;83.08
86299;BME280;76956;50.530;8.312;2024-03-23T01:11:40;99307.75;;;6.87;82.73
86299;BME280;76956;50.530;8.312;2024-03-23T01:12:40;99299.19;;;6.81;83.20
86299;BME280;76956;50.530;8.312;2024-03-23T01:13:41;99301.16;;;6.81;83.49
86299;BME280;76956;50.530;8.312;2024-03-23T01:14:42;99305.06;;;6.80;83.40
86299;BME280;76956;50.530;8.312;2024-03-23T01:15:48;99303.09;;;6.84;83.06
86299;BME280;76956;50.530;8.312;2024-03-23T01:16:49;99295.28;;;6.86;83.06
86299;BME280;76956;50.530;8.312;2024-03-23T01:17:50;99290.25;;;6.88;83.25
86299;BME280;76956;50.530;8.312;2024-03-23T01:18:50;99298.00;;;6.89;83.85
86299;BME280;76956;50.530;8.312;2024-03-23T01:19:51;99290.22;;;6.91;83.18
86299;BME280;76956;50.530;8.312;2024-03-23T01:20:52;99288.25;;;6.92;83.37
86299;BME280;76956;50.530;8.312;2024-03-23T01:21:53;99289.44;;;6.91;83.15
86299;BME280;76956;50.530;8.312;2024-03-23T01:22:53;99292.16;;;6.91;83.17
86299;BME280;76956;50.530;8.312;2024-03-23T01:23:54;99299.59;;;6.87;83.30
86299;BME280;76956;50.530;8.312;2024-03-23T01:24:55;99293.72;;;6.92;83.27
86299;BME280;76956;50.530;8.312;2024-03-23T01:25:56;99296.84;;;6.90;83.29
86299;BME280;76956;50.530;8.312;2024-03-23T01:26:56;99296.44;;;6.92;83.33
86299;BME280;76956;50.530;8.312;2024-03-23T01:27:57;99302.31;;;6.87;83.56
86299;BME280;76956;50.530;8.312;2024-03-23T01:28:58;99290.25;;;6.88;83.23
86299;BME280;76956;50.530;8.312;2024-03-23T01:29:59;99287.09;;;6.89;83.20
86299;BME280;76956;50.530;8.312;2024-03-23T01:31:00;99286.69;;;6.91;83.22
86299;BME280;76956;50.530;8.312;2024-03-23T01:32:00;99296.03;;;6.93;83.31
86299;BME280;76956;50.530;8.312;2024-03-23T01:33:02;99292.16;;;6.91;83.28
86299;BME280;76956;50.530;8.312;2024-03-23T01:34:05;99289.44;;;6.91;83.42
86299;BME280;76956;50.530;8.312;2024-03-23T01:35:06;99297.59;;;6.91;83.22
86299;BME280;76956;50.530;8.312;2024-03-23T01:36:07;99284.38;;;6.93;83.82
86299;BME280;76956;50.530;8.312;2024-03-23T01:37:08;99278.88;;;6.96;83.51
86299;BME280;76956;50.530;8.312;2024-03-23T01:38:09;99278.06;;;7.03;83.24
86299;BME280;76956;50.530;8.312;2024-03-23T01:39:10;99273.41;;;7.07;82.97
86299;BME280;76956;50.530;8.312;2024-03-23T01:40:11;99269.84;;;7.13;82.84
86299;BME280;76956;50.530;8.312;2024-03-23T01:41:14;99267.91;;;7.14;82.75
86299;BME280;76956;50.530;8.312;2024-03-23T01:42:14;99266.72;;;7.15;82.93
86299;BME280;76956;50.530;8.312;2024-03-23T01:43:15;99264.75;;;7.19;82.97
86299;BME280;76956;50.530;8.312;2024-03-23T01:44:16;99254.59;;;7.23;82.24
86299;BME280;76956;50.530;8.312;2024-03-23T01:45:18;99261.63;;;7.24;81.86
86299;BME280;76956;50.530;8.312;2024-03-23T01:46:18;99260.03;;;7.27;82.20
86299;BME280;76956;50.530;8.312;2024-03-23T01:47:19;99266.25;;;7.31;81.75
86299;BME280;76956;50.530;8.312;2024-03-23T01:48:20;99265.88;;;7.25;82.05
86299;BME280;76956;50.530;8.312;2024-03-23T01:49:21;99265.53;;;7.19;82.27
86299;BME280;76956;50.530;8.312;2024-03-23T01:50:22;99257.00;;;7.10;82.67
86299;BME280;76956;50.530;8.312;2024-03-23T01:51:24;99260.91;;;7.06;82.87
86299;BME280;76956;50.530;8.312;2024-03-23T01:52:26;99264.06;;;7.01;83.12
86299;BME280;76956;50.530;8.312;2024-03-23T01:53:28;99258.59;;;7.01;83.34
86299;BME280;76956;50.530;8.312;2024-03-23T01:54:29;99257.81;;;7.00;83.32
86299;BME280;76956;50.530;8.312;2024-03-23T01:55:31;99254.72;;;6.98;83.39
86299;BME280;76956;50.530;8.312;2024-03-23T01:56:33;99251.19;;;7.01;83.36
86299;BME280;76956;50.530;8.312;2024-03-23T01:57:37;99248.47;;;7.01;83.32
86299;BME280;76956;50.530;8.312;2024-03-23T01:58:38;99240.66;;;7.03;83.36
86299;BME280;76956;50.530;8.312;2024-03-23T01:59:39;99232.09;;;7.01;83.14
86299;BME280;76956;50.530;8.312;2024-03-23T02:00:42;99227.44;;;7.02;83.46
86299;BME280;76956;50.530;8.312;2024-03-23T02:01:43;99227.81;;;7.04;83.29
86299;BME280;76956;50.530;8.312;2024-03-23T02:02:47;99226.66;;;7.05;83.34
86299;BME280;76956;50.530;8.312;2024-03-23T02:03:48;99223.91;;;7.05;83.28
86299;BME280;76956;50.530;8.312;2024-03-23T02:04:49;99234.41;;;7.06;83.14
86299;BME280;76956;50.530;8.312;2024-03-23T02:05:50;99221.16;;;7.12;83.05
86299;BME280;76956;50.530;8.312;2024-03-23T02:06:51;99210.19;;;7.15;82.77
86299;BME280;76956;50.530;8.312;2024-03-23T02:07:51;99207.84;;;7.17;82.68
86299;BME280;76956;50.530;8.312;2024-03-23T02:08:53;99202.75;;;7.23;82.42
86299;BME280;76956;50.530;8.312;2024-03-23T02:09:55;99204.34;;;7.17;82.52
86299;BME280;76956;50.530;8.312;2024-03-23T02:10:56;99209.41;;;7.15;82.93
86299;BME280;76956;50.530;8.312;2024-03-23T02:11:57;99202.84;;;7.12;82.84
86299;BME280;76956;50.530;8.312;2024-03-23T02:12:57;99209.06;;;7.09;83.23
86299;BME280;76956;50.530;8.312;2024-03-23T02:13:58;99200.53;;;7.07;83.10
86299;BME280;76956;50.530;8.312;2024-03-23T02:14:59;99209.47;;;7.08;83.34
86299;BME280;76956;50.530;8.312;2024-03-23T02:16:01;99204.41;;;7.06;83.69
86299;BME280;76956;50.530;8.312;2024-03-23T02:17:01;99207.91;;;7.07;83.61
86299;BME280;76956;50.530;8.312;2024-03-23T02:18:02;99203.25;;;7.07;83.56
86299;BME280;76956;50.530;8.312;2024-03-23T02:19:03;99201.69;;;7.06;83.84
86299;BME280;76956;50.530;8.312;2024-03-23T02:20:04;99193.50;;;7.06;83.85
86299;BME280;76956;50.530;8.312;2024-03-23T02:21:06;99198.53;;;7.08;83.53
86299;BME280;76956;50.530;8.312;2024-03-23T02:22:07;99197.44;;;7.02;84.03
86299;BME280;76956;50.530;8.312;2024-03-23T02:23:15;99198.97;;;7.06;84.26
86299;BME280;76956;50.530;8.312;2024-03-23T02:24:16;99198.53;;;7.08;84.07
86299;BME280;76956;50.530;8.312;2024-03-23T02:25:16;99198.16;;;7.06;84.43
86299;BME280;76956;50.530;8.312;2024-03-23T02:26:17;99197.78;;;7.07;84.24
86299;BME280;76956;50.530;8.312;2024-03-23T02:27:18;99196.97;;;7.10;83.90
86299;BME280;76956;50.530;8.312;2024-03-23T02:28:19;99188.81;;;7.07;84.00
86299;BME280;76956;50.530;8.312;2024-03-23T02:29:20;99186.06;;;7.14;83.67
86299;BME280;76956;50.530;8.312;2024-03-23T02:30:21;99182.91;;;7.15;83.62
86299;BME280;76956;50.530;8.312;2024-03-23T02:31:22;99179.38;;;7.18;83.49
86299;BME280;76956;50.530;8.312;2024-03-23T02:32:22;99175.50;;;7.16;83.93
86299;BME280;76956;50.530;8.312;2024-03-23T02:33:23;99176.66;;;7.18;83.74
86299;BME280;76956;50.530;8.312;2024-03-23T02:34:24;99173.53;;;7.20;83.28
86299;BME280;76956;50.530;8.312;2024-03-23T02:35:25;99172.38;;;7.17;83.62
86299;BME280;76956;50.530;8.312;2024-03-23T02:36:26;99170.03;;;7.19;83.71
86299;BME280;76956;50.530;8.312;2024-03-23T02:37:27;99165.72;;;7.22;83.66
86299;BME280;76956;50.530;8.312;2024-03-23T02:38:28;99168.84;;;7.20;83.72
86299;BME280;76956;50.530;8.312;2024-03-23T02:39:28;99162.19;;;7.25;83.46
86299;BME280;76956;50.530;8.312;2024-03-23T02:40:29;99168.78;;;7.31;83.26
86299;BME280;76956;50.530;8.312;2024-03-23T02:41:30;99163.28;;;7.35;83.32
86299;BME280;76956;50.530;8.312;2024-03-23T02:42:31;99169.16;;;7.33;83.91
86299;BME280;76956;50.530;8.312;2024-03-23T02:43:31;99167.94;;;7.38;83.49
86299;BME280;76956;50.530;8.312;2024-03-23T02:44:32;99167.19;;;7.34;83.14
86299;BME280;76956;50.530;8.312;2024-03-23T02:45:33;99171.94;;;7.26;83.73
86299;BME280;76956;50.530;8.312;2024-03-23T02:46:34;99173.91;;;7.22;84.33
86299;BME280;76956;50.530;8.312;2024-03-23T02:47:34;99174.66;;;7.26;84.45
86299;BME280;76956;50.530;8.312;2024-03-23T02:48:35;99169.63;;;7.17;84.79
86299;BME280;76956;50.530;8.312;2024-03-23T02:49:36;99168.84;;;7.20;85.12
86299;BME280;76956;50.530;8.312;2024-03-23T02:50:37;99170.03;;;7.19;85.10
86299;BME280;76956;50.530;8.312;2024-03-23T02:51:38;99162.22;;;7.21;85.32
86299;BME280;76956;50.530;8.312;2024-03-23T02:52:39;99158.72;;;7.21;85.33
86299;BME280;76956;50.530;8.312;2024-03-23T02:53:40;99165.34;;;7.20;85.35
86299;BME280;76956;50.530;8.312;2024-03-23T02:54:41;99163.03;;;7.18;85.52
86299;BME280;76956;50.530;8.312;2024-03-23T02:55:45;99163.03;;;7.18;85.28
86299;BME280;76956;50.530;8.312;2024-03-23T02:56:46;99157.19;;;7.13;86.25
86299;BME280;76956;50.530;8.312;2024-03-23T02:57:46;99160.72;;;7.13;86.27
86299;BME280;76956;50.530;8.312;2024-03-23T02:58:47;99162.28;;;7.11;85.87
86299;BME280;76956;50.530;8.312;2024-03-23T02:59:48;99169.69;;;7.14;86.38
86299;BME280;76956;50.530;8.312;2024-03-23T03:00:49;99163.47;;;7.10;86.88
86299;BME280;76956;50.530;8.312;2024-03-23T03:01:49;99164.28;;;7.07;86.87
86299;BME280;76956;50.530;8.312;2024-03-23T03:02:50;99159.25;;;6.98;87.13
86299;BME280;76956;50.530;8.312;2024-03-23T03:03:51;99163.09;;;7.08;87.10
86299;BME280;76956;50.530;8.312;2024-03-23T03:04:51;99150.25;;;7.05;87.22
86299;BME280;76956;50.530;8.312;2024-03-23T03:05:56;99151.00;;;7.09;87.21
86299;BME280;76956;50.530;8.312;2024-03-23T03:06:57;99149.03;;;7.13;87.72
86299;BME280;76956;50.530;8.312;2024-03-23T03:07:57;99147.06;;;7.13;87.56
86299;BME280;76956;50.530;8.312;2024-03-23T03:08:58;99140.09;;;7.12;87.49
86299;BME280;76956;50.530;8.312;2024-03-23T03:09:59;99148.22;;;7.16;87.13
86299;BME280;76956;50.530;8.312;2024-03-23T03:11:00;99149.75;;;7.20;87.18
86299;BME280;76956;50.530;8.312;2024-03-23T03:12:04;99147.06;;;7.17;87.83
86299;BME280;76956;50.530;8.312;2024-03-23T03:13:04;99154.06;;;7.18;87.74
86299;BME280;76956;50.530;8.312;2024-03-23T03:14:05;99152.88;;;7.19;87.82
86299;BME280;76956;50.530;8.312;2024-03-23T03:15:08;99157.16;;;7.20;88.42
86299;BME280;76956;50.530;8.312;2024-03-23T03:16:10;99149.78;;;7.17;88.00
86299;BME280;76956;50.530;8.312;2024-03-23T03:17:11;99150.16;;;7.19;87.93
86299;BME280;76956;50.530;8.312;2024-03-23T03:18:11;99158.72;;;7.21;88.03
86299;BME280;76956;50.530;8.312;2024-03-23T03:19:12;99159.88;;;7.20;88.41
86299;BME280;76956;50.530;8.312;2024-03-23T03:20:13;99159.09;;;7.23;88.38
86299;BME280;76956;50.530;8.312;2024-03-23T03:21:15;99157.50;;;7.25;87.99
86299;BME280;76956;50.530;8.312;2024-03-23T03:22:17;99170.34;;;7.29;88.39
86299;BME280;76956;50.530;8.312;2024-03-23T03:23:17;99171.88;;;7.33;87.83
86299;BME280;76956;50.530;8.312;2024-03-23T03:24:19;99166.78;;;7.35;87.87
86299;BME280;76956;50.530;8.312;2024-03-23T03:25:20;99168.72;;;7.38;88.33
86299;BME280;76956;50.530;8.312;2024-03-23T03:26:21;99163.63;;;7.40;87.84
86299;BME280;76956;50.530;8.312;2024-03-23T03:27:22;99173.38;;;7.41;87.09
86299;BME280;76956;50.530;8.312;2024-03-23T03:28:23;99163.97;;;7.46;85.32
86299;BME280;76956;50.530;8.312;2024-03-23T03:29:24;99165.13;;;7.48;84.99
86299;BME280;76956;50.530;8.312;2024-03-23T03:30:26;99167.44;;;7.50;84.79
86299;BME280;76956;50.530;8.312;2024-03-23T03:31:26;99161.19;;;7.53;83.21
86299;BME280;76956;50.530;8.312;2024-03-23T03:32:30;99157.63;;;7.59;82.61
86299;BME280;76956;50.530;8.312;2024-03-23T03:33:30;99168.59;;;7.56;82.60
86299;BME280;76956;50.530;8.312;2024-03-23T03:34:32;99177.94;;;7.55;82.71
86299;BME280;76956;50.530;8.312;2024-03-23T03:35:32;99169.81;;;7.51;83.12
86299;BME280;76956;50.530;8.312;2024-03-23T03:36:33;99179.94;;;7.47;84.25
86299;BME280;76956;50.530;8.312;2024-03-23T03:37:34;99182.66;;;7.51;83.77
86299;BME280;76956;50.530;8.312;2024-03-23T03:38:35;99176.03;;;7.52;82.44
86299;BME280;76956;50.530;8.312;2024-03-23T03:39:35;99181.09;;;7.50;82.91
86299;BME280;76956;50.530;8.312;2024-03-23T03:40:37;99179.16;;;7.50;81.94
86299;BME280;76956;50.530;8.312;2024-03-23T03:41:38;99181.88;;;7.50;83.17
86299;BME280;76956;50.530;8.312;2024-03-23T03:42:39;99171.75;;;7.47;83.19
86299;BME280;76956;50.530;8.312;2024-03-23T03:43:40;99177.63;;;7.46;83.59
86299;BME280;76956;50.530;8.312;2024-03-23T03:44:41;99176.84;;;7.45;83.57
86299;BME280;76956;50.530;8.312;2024-03-23T03:45:41;99181.94;;;7.47;83.18
86299;BME280;76956;50.530;8.312;2024-03-23T03:46:42;99184.25;;;7.45;83.63
86299;BME280;76956;50.530;8.312;2024-03-23T03:47:43;99183.53;;;7.41;83.69
86299;BME280;76956;50.530;8.312;2024-03-23T03:48:44;99189.41;;;7.39;84.77
86299;BME280;76956;50.530;8.312;2024-03-23T03:49:47;99187.09;;;7.31;84.36
86299;BME280;76956;50.530;8.312;2024-03-23T03:50:48;99192.19;;;7.32;85.54
86299;BME280;76956;50.530;8.312;2024-03-23T03:51:48;99200.78;;;7.27;85.87
86299;BME280;76956;50.530;8.312;2024-03-23T03:52:49;99203.13;;;7.25;84.97
86299;BME280;76956;50.530;8.312;2024-03-23T03:53:50;99199.97;;;7.30;82.65
86299;BME280;76956;50.530;8.312;2024-03-23T03:54:51;99205.09;;;7.21;82.84
86299;BME280;76956;50.530;8.312;2024-03-23T03:55:52;99192.19;;;7.25;82.82
86299;BME280;76956;50.530;8.312;2024-03-23T03:56:52;99182.09;;;7.22;82.84
86299;BME280;76956;50.530;8.312;2024-03-23T03:57:53;99177.03;;;7.24;82.71
86299;BME280;76956;50.530;8.312;2024-03-23T03:58:54;99166.84;;;7.28;83.25
86299;BME280;76956;50.530;8.312;2024-03-23T03:59:55;99168.03;;;7.27;83.52
86299;BME280;76956;50.530;8.312;2024-03-23T04:00:55;99167.63;;;7.25;83.67
86299;BME280;76956;50.530;8.312;2024-03-23T04:01:56;99177.38;;;7.26;82.60
86299;BME280;76956;50.530;8.312;2024-03-23T04:02:57;99181.28;;;7.25;83.04
86299;BME280;76956;50.530;8.312;2024-03-23T04:03:58;99189.09;;;7.23;83.00
86299;BME280;76956;50.530;8.312;2024-03-23T04:04:58;99187.56;;;7.22;83.60
86299;BME280;76956;50.530;8.312;2024-03-23T04:05:59;99189.13;;;7.19;83.18
86299;BME280;76956;50.530;8.312;2024-03-23T04:07:01;99197.66;;;7.25;84.12
86299;BME280;76956;50.530;8.312;2024-03-23T04:08:02;99197.66;;;7.29;83.14
86299;BME280;76956;50.530;8.312;2024-03-23T04:09:03;99197.66;;;7.25;82.75
86299;BME280;76956;50.530;8.312;2024-03-23T04:10:04;99205.06;;;7.28;82.22
86299;BME280;76956;50.530;8.312;2024-03-23T04:11:08;99199.22;;;7.30;81.79
86299;BME280;76956;50.530;8.312;2024-03-23T04:12:09;99208.16;;;7.30;83.55
86299;BME280;76956;50.530;8.312;2024-03-23T04:13:09;99205.91;;;7.18;81.27
86299;BME280;76956;50.530;8.312;2024-03-23T04:14:10;99202.75;;;7.23;82.13
86299;BME280;76956;50.530;8.312;2024-03-23T04:15:11;99197.66;;;7.25;82.54
86299;BME280;76956;50.530;8.312;2024-03-23T04:16:12;99199.59;;;7.28;82.60
86299;BME280;76956;50.530;8.312;2024-03-23T04:17:12;99194.53;;;7.27;83.31
86299;BME280;76956;50.530;8.312;2024-03-23T04:18:13;99200.81;;;7.20;82.67
86299;BME280;76956;50.530;8.312;2024-03-23T04:19:14;99198.88;;;7.20;82.48
86299;BME280;76956;50.530;8.312;2024-03-23T04:20:16;99211.72;;;7.23;82.57
86299;BME280;76956;50.530;8.312;2024-03-23T04:21:17;99201.53;;;7.28;82.05
86299;BME280;76956;50.530;8.312;2024-03-23T04:22:18;99208.97;;;7.27;83.10
86299;BME280;76956;50.530;8.312;2024-03-23T04:23:18;99200.38;;;7.25;82.62
86299;BME280;76956;50.530;8.312;2024-03-23T04:24:19;99203.91;;;7.25;82.42
86299;BME280;76956;50.530;8.312;2024-03-23T04:25:21;99201.16;;;7.29;82.33
86299;BME280;76956;50.530;8.312;2024-03-23T04:26:22;99208.56;;;7.25;83.39
86299;BME280;76956;50.530;8.312;2024-03-23T04:27:23;99210.56;;;7.24;82.63
86299;BME280;76956;50.530;8.312;2024-03-23T04:28:24;99203.53;;;7.23;81.97
86299;BME280;76956;50.530;8.312;2024-03-23T04:29:24;99201.59;;;7.24;83.18
86299;BME280;76956;50.530;8.312;2024-03-23T04:30:27;99201.22;;;7.22;83.30
86299;BME280;76956;50.530;8.312;2024-03-23T04:31:29;99199.28;;;7.15;81.68
86299;BME280;76956;50.530;8.312;2024-03-23T04:32:32;99199.69;;;7.14;81.45
86299;BME280;76956;50.530;8.312;2024-03-23T04:33:33;99196.97;;;7.10;81.27
86299;BME280;76956;50.530;8.312;2024-03-23T04:34:33;99203.22;;;7.11;80.88
86299;BME280;76956;50.530;8.312;2024-03-23T04:35:34;99206.72;;;7.11;80.87
86299;BME280;76956;50.530;8.312;2024-03-23T04:36:35;99209.44;;;7.11;80.29
86299;BME280;76956;50.530;8.312;2024-03-23T04:37:39;99214.13;;;7.11;81.10
86299;BME280;76956;50.530;8.312;2024-03-23T04:38:46;99216.84;;;7.11;80.51
86299;BME280;76956;50.530;8.312;2024-03-23T04:39:47;99213.34;;;7.10;79.61
86299;BME280;76956;50.530;8.312;2024-03-23T04:40:59;99209.88;;;7.06;79.14
86299;BME280;76956;50.530;8.312;2024-03-23T04:42:00;99215.34;;;7.03;80.88
86299;BME280;76956;50.530;8.312;2024-03-23T04:43:02;99209.09;;;7.06;80.59
86299;BME280;76956;50.530;8.312;2024-03-23T04:44:04;99216.47;;;7.09;80.72
86299;BME280;76956;50.530;8.312;2024-03-23T04:45:06;99216.53;;;7.02;79.97
86299;BME280;76956;50.530;8.312;2024-03-23T04:46:07;99225.50;;;7.02;81.06
86299;BME280;76956;50.530;8.312;2024-03-23T04:47:07;99226.69;;;6.94;80.87
86299;BME280;76956;50.530;8.312;2024-03-23T04:48:08;99225.88;;;7.01;82.10
86299;BME280;76956;50.530;8.312;2024-03-23T04:49:09;99231.72;;;6.99;80.47
86299;BME280;76956;50.530;8.312;2024-03-23T04:50:10;99242.19;;;7.08;80.82
86299;BME280;76956;50.530;8.312;2024-03-23T04:51:23;99236.41;;;7.02;81.62
86299;BME280;76956;50.530;8.312;2024-03-23T04:52:23;99239.50;;;7.01;80.94
86299;BME280;76956;50.530;8.312;2024-03-23T04:53:24;99242.22;;;7.04;81.25
86299;BME280;76956;50.530;8.312;2024-03-23T04:54:29;99245.34;;;7.06;80.59
86299;BME280;76956;50.530;8.312;2024-03-23T04:55:30;99249.63;;;7.04;81.03
86299;BME280;76956;50.530;8.312;2024-03-23T04:56:32;99252.34;;;7.07;81.68
86299;BME280;76956;50.530;8.312;2024-03-23T04:57:33;99252.00;;;7.02;81.21
86299;BME280;76956;50.530;8.312;2024-03-23T04:58:34;99262.47;;;7.07;80.53
86299;BME280;76956;50.530;8.312;2024-03-23T04:59:35;99265.22;;;7.07;81.54
86299;BME280;76956;50.530;8.312;2024-03-23T05:00:35;99258.56;;;7.08;82.71
86299;BME280;76956;50.530;8.312;2024-03-23T05:01:36;99271.81;;;7.09;82.67
86299;BME280;76956;50.530;8.312;2024-03-23T05:02:44;99271.88;;;6.99;82.15
86299;BME280;76956;50.530;8.312;2024-03-23T05:03:45;99269.91;;;6.96;80.56
86299;BME280;76956;50.530;8.312;2024-03-23T05:04:46;99276.53;;;6.98;81.12
86299;BME280;76956;50.530;8.312;2024-03-23T05:05:48;99277.31;;;6.99;81.57
86299;BME280;76956;50.530;8.312;2024-03-23T05:06:49;99285.88;;;7.04;81.37
86299;BME280;76956;50.530;8.312;2024-03-23T05:07:49;99293.28;;;7.04;80.18
86299;BME280;76956;50.530;8.312;2024-03-23T05:08:51;99293.28;;;7.04;79.54
86299;BME280;76956;50.530;8.312;2024-03-23T05:09:52;99311.97;;;7.09;79.45
86299;BME280;76956;50.530;8.312;2024-03-23T05:10:53;99307.69;;;7.01;79.75
86299;BME280;76956;50.530;8.312;2024-03-23T05:11:53;99322.56;;;6.86;80.11
86299;BME280;76956;50.530;8.312;2024-03-23T05:12:54;99314.41;;;6.79;78.32
86299;BME280;76956;50.530;8.312;2024-03-23T05:13:55;99327.25;;;6.85;76.56
86299;BME280;76956;50.530;8.312;2024-03-23T05:14:56;99319.84;;;6.86;76.99
86299;BME280;76956;50.530;8.312;2024-03-23T05:15:56;99324.91;;;6.84;76.42
86299;BME280;76956;50.530;8.312;2024-03-23T05:16:57;99316.75;;;6.80;74.92
86299;BME280;76956;50.530;8.312;2024-03-23T05:17:58;99327.66;;;6.80;75.42
86299;BME280;76956;50.530;8.312;2024-03-23T05:18:59;99313.66;;;6.75;75.22
86299;BME280;76956;50.530;8.312;2024-03-23T05:20:00;99317.91;;;6.76;75.45
86299;BME280;76956;50.530;8.312;2024-03-23T05:21:01;99315.59;;;6.74;75.85
86299;BME280;76956;50.530;8.312;2024-03-23T05:22:02;99310.91;;;6.75;75.69
86299;BME280;76956;50.530;8.312;2024-03-23T05:23:03;99312.88;;;6.64;75.97
86299;BME280;76956;50.530;8.312;2024-03-23T05:24:04;99321.84;;;6.68;74.93
86299;BME280;76956;50.530;8.312;2024-03-23T05:25:05;99317.16;;;6.61;75.77
86299;BME280;76956;50.530;8.312;2024-03-23T05:26:06;99320.31;;;6.59;75.53
86299;BME280;76956;50.530;8.312;2024-03-23T05:27:06;99326.91;;;6.58;75.46
86299;BME280;76956;50.530;8.312;2024-03-23T05:28:07;99323.41;;;6.54;76.40
86299;BME280;76956;50.530;8.312;2024-03-23T05:29:08;99330.06;;;6.53;77.29
86299;BME280;76956;50.530;8.312;2024-03-23T05:30:11;99331.59;;;6.54;76.43
86299;BME280;76956;50.530;8.312;2024-03-23T05:31:12;99322.28;;;6.48;77.46
86299;BME280;76956;50.530;8.312;2024-03-23T05:32:13;99332.78;;;6.50;78.07
86299;BME280;76956;50.530;8.312;2024-03-23T05:33:14;99328.50;;;6.52;77.56
86299;BME280;76956;50.530;8.312;2024-03-23T05:34:14;99335.09;;;6.51;76.31
86299;BME280;76956;50.530;8.312;2024-03-23T05:35:15;99324.97;;;6.52;76.58
86299;BME280;76956;50.530;8.312;2024-03-23T05:36:17;99333.19;;;6.48;75.22
86299;BME280;76956;50.530;8.312;2024-03-23T05:37:18;99329.69;;;6.27;75.70
86299;BME280;76956;50.530;8.312;2024-03-23T05:38:18;99332.00;;;6.32;76.01
86299;BME280;76956;50.530;8.312;2024-03-23T05:39:20;99330.44;;;6.34;75.42
86299;BME280;76956;50.530;8.312;2024-03-23T05:40:22;99332.00;;;6.39;76.70
86299;BME280;76956;50.530;8.312;2024-03-23T05:41:23;99338.63;;;6.34;76.26
86299;BME280;76956;50.530;8.312;2024-03-23T05:42:24;99337.88;;;6.30;77.02
86299;BME280;76956;50.530;8.312;2024-03-23T05:43:26;99341.75;;;6.29;76.26
86299;BME280;76956;50.530;8.312;2024-03-23T05:44:27;99337.47;;;6.28;75.91
86299;BME280;76956;50.530;8.312;2024-03-23T05:45:27;99334.34;;;6.19;76.33
86299;BME280;76956;50.530;8.312;2024-03-23T05:46:28;99336.69;;;6.21;76.03
86299;BME280;76956;50.530;8.312;2024-03-23T05:47:29;99328.53;;;6.17;76.34
86299;BME280;76956;50.530;8.312;2024-03-23T05:48:30;99328.16;;;6.19;76.43
86299;BME280;76956;50.530;8.312;2024-03-23T05:49:31;99326.19;;;6.23;76.35
86299;BME280;76956;50.530;8.312;2024-03-23T05:50:32;99333.97;;;6.24;76.34
86299;BME280;76956;50.530;8.312;2024-03-23T05:51:33;99330.47;;;6.24;75.53
86299;BME280;76956;50.530;8.312;2024-03-23T05:52:33;99330.06;;;6.15;75.01
86299;BME280;76956;50.530;8.312;2024-03-23T05:53:34;99332.81;;;6.04;75.62
86299;BME280;76956;50.530;8.312;2024-03-23T05:54:35;99344.84;;;6.00;76.51
86299;BME280;76956;50.530;8.312;2024-03-23T05:55:36;99354.97;;;6.03;75.60
86299;BME280;76956;50.530;8.312;2024-03-23T05:56:37;99360.03;;;5.97;75.63
86299;BME280;76956;50.530;8.312;2024-03-23T05:57:38;99355.38;;;5.94;74.60
86299;BME280;76956;50.530;8.312;2024-03-23T05:58:38;99361.59;;;5.98;75.87
86299;BME280;76956;50.530;8.312;2024-03-23T05:59:39;99358.47;;;6.00;76.14
86299;BME280;76956;50.530;8.312;2024-03-23T06:00:40;99356.16;;;6.02;74.92
86299;BME280;76956;50.530;8.312;2024-03-23T06:01:41;99361.59;;;6.05;75.46
86299;BME280;76956;50.530;8.312;2024-03-23T06:02:42;99361.59;;;6.09;75.69
86299;BME280;76956;50.530;8.312;2024-03-23T06:03:45;99362.78;;;6.11;75.38
86299;BME280;76956;50.530;8.312;2024-03-23T06:04:46;99357.31;;;6.15;76.73
86299;BME280;76956;50.530;8.312;2024-03-23T06:05:47;99365.50;;;6.18;74.43
86299;BME280;76956;50.530;8.312;2024-03-23T06:06:47;99374.81;;;6.17;75.04
86299;BME280;76956;50.530;8.312;2024-03-23T06:07:48;99366.28;;;6.15;75.21
86299;BME280;76956;50.530;8.312;2024-03-23T06:08:50;99370.56;;;6.16;74.58
86299;BME280;76956;50.530;8.312;2024-03-23T06:09:51;99377.56;;;6.17;75.80
86299;BME280;76956;50.530;8.312;2024-03-23T06:10:51;99381.47;;;6.16;75.31
86299;BME280;76956;50.530;8.312;2024-03-23T06:11:52;99389.63;;;6.16;75.24
86299;BME280;76956;50.530;8.312;2024-03-23T06:12:53;99393.53;;;6.19;75.19
86299;BME280;76956;50.530;8.312;2024-03-23T06:13:55;99393.91;;;6.14;75.44
86299;BME280;76956;50.530;8.312;2024-03-23T06:14:56;99402.09;;;6.14;75.42
86299;BME280;76956;50.530;8.312;2024-03-23T06:15:57;99396.25;;;6.15;74.57
86299;BME280;76956;50.530;8.312;2024-03-23T06:16:59;99393.13;;;6.13;74.28
86299;BME280;76956;50.530;8.312;2024-03-23T06:18:00;99411.75;;;5.97;74.61
86299;BME280;76956;50.530;8.312;2024-03-23T06:19:01;99417.63;;;5.92;73.79
86299;BME280;76956;50.530;8.312;2024-03-23T06:20:05;99412.16;;;5.88;73.85
86299;BME280;76956;50.530;8.312;2024-03-23T06:21:13;99409.84;;;5.94;74.47